This demonstration page uses our WeatherBlox Daily Observations layout. Learn more.

39.92423, -83.80882

Hourly Observations for July 23, 2018

Temp ( °F °C ) Dew Point ( °F °C ) Humidity (%) Winds ( mph kmh ) Pressure ( in mb ) Visibility ( mi km ) Precip ( " mm )
12:56 am 00:56 Clear 65 18.3 62 16.7 90 90 NNE 6 9 29.85 1011 10 16.0934 0 0
1:56 am 01:56 Clear 65 18.3 62 16.7 90 90 NNE 9 15 29.83 1010 10 16.0934 0 0
2:56 am 02:56 Clear 65 18.3 62 16.7 90 90 NE 9 15 29.82 1010 10 16.0934 0 0
3:56 am 03:56 Clear 64 17.8 62 16.7 93 93 N 7 11 29.83 1010 10 16.0934 0 0
4:56 am 04:56 Clear 64 17.8 62 16.7 93 93 N 7 11 29.84 1011 10 16.0934 0 0
5:56 am 05:56 Clear 64 17.8 62 16.7 93 93 N 8 13 29.85 1011 10 16.0934 0 0
6:56 am 06:56 Sunny 63 17.2 61 16.1 93 93 NNE 8 13 29.86 1011 10 16.0934 0 0
7:56 am 07:56 Sunny 64 17.8 62 16.7 93 93 N 6 9 29.88 1012 10 16.0934 0 0
8:56 am 08:56 Sunny 65 18.3 62 16.7 90 90 N 8 13 29.89 1012 10 16.0934 0 0
9:56 am 09:56 Sunny 66 18.9 62 16.7 87 87 NNE 5 7 29.89 1012 10 16.0934 0 0
10:56 am 10:56 Sunny 69 20.6 63 17.2 81 81 NNE 7 11 29.89 1012 10 16.0934 0 0
11:56 am 11:56 Sunny 69 20.6 63 17.2 81 81 NE 6 9 29.9 1013 10 16.0934 0 0
1:56 pm 13:56 Sunny 72 22.2 65 18.3 79 79 E 6 9 29.9 1013 10 16.0934 0 0
2:56 pm 14:56 Sunny 72 22.2 68 20 87 87 NE 3 6 29.9 1013 10 16.0934 0 0.0254
3:56 pm 15:56 Sunny 72 22.2 67 19.4 84 84 VRB 3 6 29.89 1012 10 16.0934 0 0
4:56 pm 16:56 Sunny 74 23.3 66 18.9 76 76 N 6 9 29.88 1012 10 16.0934 0 0
5:56 pm 17:56 Sunny 77 25 67 19.4 71 71 NW 6 9 29.88 1012 10 16.0934 0 0
6:56 pm 18:56 Sunny 75 23.9 67 19.4 76 76 NW 6 9 29.89 1012 10 16.0934 0 0
8:56 pm 20:56 Sunny 73 22.8 67 19.4 81 81 NNW 3 6 29.92 1013 10 16.0934 0 0
9:56 pm 21:56 Clear 71 21.7 69 20.6 94 94 Calm 29.93 1014 10 16.0934 0 0
10:56 pm 22:56 Clear 70 21.1 69 20.6 97 97 Calm 29.94 1014 10 16.0934 0 0
11:56 pm 23:56 Clear 68 20 68 20 100 100 Calm 29.93 1014 10 16.0934 0 0

Powered by AerisWeather